createdAt,value
2022-09-24T00:01:57.631Z,1.33
2022-09-24T00:04:26.192Z,1.40
2022-09-24T00:06:54.419Z,1.53
2022-09-24T00:09:24.411Z,1.63
2022-09-24T00:11:53.350Z,1.37
2022-09-24T00:14:21.634Z,1.30
2022-09-24T00:16:50.003Z,1.20
2022-09-24T00:19:18.210Z,1.80
2022-09-24T00:21:46.428Z,1.60
2022-09-24T00:24:35.765Z,1.20
2022-09-24T00:27:04.627Z,1.70
2022-09-24T00:29:34.100Z,1.33
2022-09-24T00:32:02.715Z,1.73
2022-09-24T00:34:31.047Z,1.40
2022-09-24T00:36:59.558Z,1.40
2022-09-24T00:39:27.924Z,1.37
2022-09-24T00:41:56.193Z,1.20
2022-09-24T00:44:54.875Z,1.67
2022-09-24T00:47:28.661Z,1.40
2022-09-24T00:49:57.701Z,1.97
2022-09-24T00:52:26.090Z,1.23
2022-09-24T00:54:54.735Z,1.57
2022-09-24T00:57:23.322Z,2.07
2022-09-24T00:59:51.533Z,1.23
2022-09-24T01:02:19.863Z,1.47
2022-09-24T01:04:53.164Z,1.47
2022-09-24T01:07:23.917Z,1.67
2022-09-24T01:09:52.152Z,1.20
2022-09-24T01:12:21.177Z,1.70
2022-09-24T01:14:52.673Z,1.47
2022-09-24T01:17:23.741Z,1.63
2022-09-24T01:20:04.805Z,1.40
2022-09-24T01:22:36.662Z,1.10
2022-09-24T01:25:06.520Z,1.13
2022-09-24T01:27:41.168Z,1.17
2022-09-24T01:30:11.433Z,1.40
2022-09-24T01:32:41.055Z,0.93
2022-09-24T01:35:13.443Z,1.43
2022-09-24T01:37:41.983Z,2.00
2022-09-24T01:40:10.813Z,1.93
2022-09-24T01:42:39.191Z,2.20
2022-09-24T01:45:07.997Z,2.00
2022-09-24T01:47:39.922Z,1.87
2022-09-24T01:50:08.965Z,2.03
2022-09-24T01:52:37.601Z,2.53
2022-09-24T01:55:06.059Z,2.03
2022-09-24T01:57:35.591Z,2.10
2022-09-24T02:00:05.245Z,2.13
2022-09-24T02:02:35.260Z,2.00
2022-09-24T02:05:06.372Z,2.83
2022-09-24T02:07:36.215Z,3.00
2022-09-24T02:10:04.463Z,2.00
2022-09-24T02:12:33.728Z,2.50
2022-09-24T02:15:03.145Z,2.13
2022-09-24T02:17:32.707Z,1.90
2022-09-24T02:20:00.928Z,1.90
2022-09-24T02:22:30.499Z,1.80
2022-09-24T02:24:58.993Z,2.03
2022-09-24T02:27:28.558Z,2.20
2022-09-24T02:29:56.901Z,2.07
2022-09-24T02:32:25.126Z,1.50
2022-09-24T02:34:52.711Z,2.43
2022-09-24T02:37:21.336Z,1.93
2022-09-24T02:39:50.856Z,1.33
2022-09-24T02:42:19.101Z,1.67
2022-09-24T02:44:47.488Z,2.20
2022-09-24T02:47:15.809Z,2.30
2022-09-24T02:49:44.037Z,2.13
2022-09-24T02:52:12.262Z,2.23
2022-09-24T02:54:41.072Z,1.97
2022-09-24T02:57:10.657Z,2.30
2022-09-24T02:59:38.845Z,2.03
2022-09-24T03:02:07.266Z,1.90
2022-09-24T03:04:35.651Z,1.70
2022-09-24T03:07:03.900Z,2.27
2022-09-24T03:09:32.121Z,2.00
2022-09-24T03:12:00.946Z,1.83
2022-09-24T03:14:30.564Z,2.27
2022-09-24T03:16:58.764Z,1.60
2022-09-24T03:19:26.958Z,1.83
2022-09-24T03:21:55.305Z,1.90
2022-09-24T03:24:23.580Z,2.00
2022-09-24T03:26:51.868Z,2.17
2022-09-24T03:29:41.090Z,2.60
2022-09-24T03:32:09.661Z,2.97
2022-09-24T03:34:37.833Z,2.60
2022-09-24T03:37:06.037Z,2.80
2022-09-24T03:39:34.261Z,3.07
2022-09-24T03:42:02.506Z,2.67
2022-09-24T03:44:30.718Z,3.20
2022-09-24T03:46:59.014Z,2.93
2022-09-24T03:49:28.578Z,3.37
2022-09-24T03:51:57.247Z,3.23
2022-09-24T03:54:25.486Z,2.90
2022-09-24T03:56:53.694Z,3.20
2022-09-24T03:59:21.887Z,3.00
2022-09-24T04:01:50.461Z,3.03
2022-09-24T04:04:18.846Z,3.93
2022-09-24T04:06:48.442Z,3.60
2022-09-24T04:09:16.637Z,3.87
2022-09-24T04:11:44.839Z,3.70
2022-09-24T04:14:13.041Z,3.63
2022-09-24T04:16:41.527Z,4.43
2022-09-24T04:19:09.798Z,4.17
2022-09-24T04:21:37.998Z,4.00
2022-09-24T04:24:07.907Z,4.87
2022-09-24T04:26:36.178Z,3.63
2022-09-24T04:29:05.289Z,4.90
2022-09-24T04:31:33.580Z,5.47
2022-09-24T04:34:02.007Z,5.43
2022-09-24T04:36:30.279Z,5.37
2022-09-24T04:38:59.240Z,5.30
2022-09-24T04:41:28.826Z,4.67
2022-09-24T04:43:58.158Z,4.83
2022-09-24T04:46:26.414Z,5.53
2022-09-24T04:48:55.052Z,5.47
2022-09-24T04:51:23.286Z,5.40
2022-09-24T04:53:51.564Z,4.87
2022-09-24T04:56:19.758Z,5.57
2022-09-24T04:58:51.664Z,6.20
2022-09-24T05:01:20.435Z,5.73
2022-09-24T05:03:48.765Z,4.47
2022-09-24T05:06:17.068Z,5.47
2022-09-24T05:08:45.278Z,5.33
2022-09-24T05:11:13.629Z,5.13
2022-09-24T05:13:41.886Z,4.33
2022-09-24T05:16:11.479Z,5.13
2022-09-24T05:18:39.762Z,4.93
2022-09-24T05:21:08.406Z,6.07
2022-09-24T05:23:36.652Z,4.77
2022-09-24T05:26:22.342Z,4.43
2022-09-24T05:28:50.766Z,5.33
2022-09-24T05:31:20.517Z,4.87
2022-09-24T05:33:49.330Z,4.67
2022-09-24T05:36:19.135Z,3.87
2022-09-24T05:38:47.367Z,4.33
2022-09-24T05:41:15.581Z,4.87
2022-09-24T05:43:43.806Z,3.83
2022-09-24T05:46:12.087Z,4.60
2022-09-24T05:48:41.701Z,3.83
2022-09-24T05:51:09.900Z,3.90
2022-09-24T05:53:38.107Z,3.50
2022-09-24T05:56:06.366Z,3.37
2022-09-24T05:58:34.582Z,3.40
2022-09-24T06:01:02.782Z,2.90
2022-09-24T06:03:31.975Z,2.93
2022-09-24T06:06:02.249Z,3.47
2022-09-24T06:08:30.784Z,2.60
2022-09-24T06:11:00.278Z,2.10
2022-09-24T06:13:28.500Z,2.50
2022-09-24T06:16:01.665Z,2.70
2022-09-24T06:18:29.927Z,1.93
2022-09-24T06:20:58.151Z,2.33
2022-09-24T06:23:27.726Z,2.07
2022-09-24T06:25:55.914Z,1.67
2022-09-24T06:28:25.310Z,1.80
2022-09-24T06:30:53.842Z,1.97
2022-09-24T06:33:22.129Z,2.00
2022-09-24T06:35:50.329Z,2.13
2022-09-24T06:38:18.863Z,2.00
2022-09-24T06:40:49.214Z,1.33
2022-09-24T06:43:17.571Z,1.63
2022-09-24T06:45:46.098Z,1.30
2022-09-24T06:48:14.491Z,1.00
2022-09-24T06:50:43.391Z,1.50
2022-09-24T06:53:11.928Z,1.20
2022-09-24T06:55:40.245Z,0.90
2022-09-24T06:58:10.650Z,0.97
2022-09-24T07:00:39.144Z,0.87
2022-09-24T07:03:07.498Z,1.10
2022-09-24T07:05:39.678Z,0.97
2022-09-24T07:08:10.934Z,1.17
2022-09-24T07:10:39.676Z,0.70
2022-09-24T07:13:07.872Z,1.00
2022-09-24T07:15:37.590Z,1.10
2022-09-24T07:18:05.901Z,1.23
2022-09-24T07:20:36.871Z,1.17
2022-09-24T07:23:05.845Z,0.83
2022-09-24T07:25:34.140Z,1.47
2022-09-24T07:28:03.875Z,1.27
2022-09-24T07:30:32.163Z,0.90
2022-09-24T07:33:01.769Z,0.73
2022-09-24T07:35:30.247Z,1.13
2022-09-24T07:37:59.344Z,0.50
2022-09-24T07:40:27.803Z,0.97
2022-09-24T07:42:56.997Z,0.80
2022-09-24T07:45:27.958Z,0.70
2022-09-24T07:47:59.711Z,1.00
2022-09-24T07:50:29.416Z,1.00
2022-09-24T07:52:57.662Z,0.90
2022-09-24T07:55:26.171Z,1.20
2022-09-24T07:57:54.747Z,1.20
2022-09-24T08:00:23.322Z,1.60
2022-09-24T08:02:51.944Z,1.33
2022-09-24T08:05:20.162Z,1.70
2022-09-24T08:07:53.876Z,1.57
2022-09-24T08:10:22.158Z,1.60
2022-09-24T08:12:50.445Z,2.37
2022-09-24T08:15:19.008Z,2.10
2022-09-24T08:17:47.211Z,2.37
2022-09-24T08:20:15.436Z,2.27
2022-09-24T08:22:43.785Z,2.40
2022-09-24T08:25:13.345Z,1.90
2022-09-24T08:27:41.568Z,2.83
2022-09-24T08:30:10.375Z,2.73
2022-09-24T08:32:38.619Z,2.63
2022-09-24T08:35:08.352Z,2.77
2022-09-24T08:37:37.497Z,3.00
2022-09-24T08:40:05.914Z,3.93
2022-09-24T08:42:37.562Z,3.63
2022-09-24T08:45:31.931Z,3.50
2022-09-24T08:48:01.237Z,3.73
2022-09-24T08:50:29.925Z,3.97
2022-09-24T08:52:59.845Z,3.10
2022-09-24T08:55:30.179Z,4.10
2022-09-24T08:58:03.240Z,3.70
2022-09-24T09:00:31.790Z,4.13
2022-09-24T09:03:00.641Z,3.83
2022-09-24T09:05:32.122Z,3.90
2022-09-24T09:08:02.801Z,4.67
2022-09-24T09:10:32.425Z,3.87
2022-09-24T09:13:02.225Z,3.97
2022-09-24T09:15:31.099Z,4.90
2022-09-24T09:17:59.809Z,4.10
2022-09-24T09:20:29.574Z,4.40
2022-09-24T09:22:57.806Z,4.93
2022-09-24T09:25:28.401Z,4.83
2022-09-24T09:27:57.993Z,4.33
2022-09-24T09:30:27.577Z,3.00
2022-09-24T09:32:59.655Z,3.67
2022-09-24T09:35:30.553Z,3.47
2022-09-24T09:38:02.113Z,2.93
2022-09-24T09:40:32.540Z,2.80
2022-09-24T09:43:02.948Z,2.97
2022-09-24T09:45:33.640Z,3.83
2022-09-24T09:48:03.192Z,2.77
2022-09-24T09:50:32.257Z,2.33
2022-09-24T09:53:00.451Z,4.00
2022-09-24T09:55:29.165Z,2.87
2022-09-24T09:58:00.797Z,3.53
2022-09-24T10:00:29.612Z,3.07
2022-09-24T10:02:59.380Z,2.90
2022-09-24T10:05:28.836Z,2.07
2022-09-24T10:07:58.166Z,2.37
2022-09-24T10:10:27.015Z,2.67
2022-09-24T10:12:56.066Z,2.00
2022-09-24T10:15:25.713Z,2.43
2022-09-24T10:17:54.410Z,2.60
2022-09-24T10:20:27.637Z,1.83
2022-09-24T10:22:56.788Z,1.70
2022-09-24T10:25:26.202Z,2.10
2022-09-24T10:27:55.142Z,1.60
2022-09-24T10:30:34.298Z,2.23
2022-09-24T10:33:02.976Z,1.97
2022-09-24T10:35:35.529Z,2.30
2022-09-24T10:38:04.138Z,3.03
2022-09-24T10:40:32.830Z,2.10
2022-09-24T10:43:01.523Z,2.27
2022-09-24T10:45:32.675Z,2.10
2022-09-24T10:48:03.754Z,2.07
2022-09-24T10:50:34.093Z,2.57
2022-09-24T10:53:02.637Z,1.70
2022-09-24T10:55:42.142Z,2.20
2022-09-24T10:58:14.044Z,1.63
2022-09-24T11:00:42.514Z,2.10
2022-09-24T11:03:16.745Z,2.00
2022-09-24T11:05:49.965Z,1.83
2022-09-24T11:08:19.900Z,2.13
2022-09-24T11:10:55.036Z,1.80
2022-09-24T11:13:25.944Z,2.07
2022-09-24T11:16:00.742Z,2.63
2022-09-24T11:18:32.662Z,2.07
2022-09-24T11:21:03.653Z,1.97
2022-09-24T11:23:38.009Z,1.50
2022-09-24T11:26:08.879Z,1.60
2022-09-24T11:28:40.738Z,1.47
2022-09-24T11:31:09.878Z,2.37
2022-09-24T11:33:42.985Z,1.60
2022-09-24T11:36:16.947Z,1.40
2022-09-24T11:38:52.809Z,1.60
2022-09-24T11:41:24.194Z,1.60
2022-09-24T11:43:58.411Z,1.70
2022-09-24T11:46:30.336Z,1.53
2022-09-24T11:49:16.256Z,1.50
2022-09-24T11:51:49.551Z,1.40
2022-09-24T11:54:19.551Z,1.70
2022-09-24T11:56:48.646Z,1.67
2022-09-24T11:59:18.186Z,2.07
2022-09-24T12:01:48.817Z,2.00
2022-09-24T12:04:17.622Z,1.60
2022-09-24T12:06:52.247Z,1.80
2022-09-24T12:09:23.217Z,2.40
2022-09-24T12:11:51.942Z,2.00
2022-09-24T12:14:20.691Z,1.47
2022-09-24T12:16:50.201Z,1.40
2022-09-24T12:19:18.862Z,2.07
2022-09-24T12:21:47.843Z,1.80
2022-09-24T12:24:17.814Z,1.57
2022-09-24T12:26:47.542Z,1.47
2022-09-24T12:29:41.379Z,1.80
2022-09-24T12:32:33.571Z,2.23
2022-09-24T12:35:02.413Z,1.80
2022-09-24T12:37:31.442Z,2.00
2022-09-24T12:40:00.768Z,2.00
2022-09-24T12:42:32.282Z,1.53
2022-09-24T12:45:00.696Z,2.27
2022-09-24T12:47:29.611Z,2.17
2022-09-24T12:49:58.593Z,1.93
2022-09-24T12:52:27.586Z,1.33
2022-09-24T12:55:01.424Z,1.50
2022-09-24T12:57:33.180Z,2.23
2022-09-24T13:00:01.862Z,2.10
2022-09-24T13:02:31.289Z,1.93
2022-09-24T13:05:17.498Z,1.70
2022-09-24T13:07:55.875Z,1.73
2022-09-24T13:10:25.129Z,1.60
2022-09-24T13:12:54.786Z,1.73
2022-09-24T13:15:28.816Z,1.93
2022-09-24T13:18:07.004Z,2.17
2022-09-24T13:20:36.190Z,1.97
2022-09-24T13:23:14.352Z,1.83
2022-09-24T13:25:42.747Z,1.60
2022-09-24T13:28:23.085Z,1.53
2022-09-24T13:30:52.103Z,1.53
2022-09-24T13:33:23.977Z,1.20
2022-09-24T13:35:55.996Z,1.87
2022-09-24T13:38:24.850Z,1.30
2022-09-24T13:40:54.284Z,1.60
2022-09-24T13:43:27.287Z,1.60
2022-09-24T13:45:55.536Z,1.87
2022-09-24T13:48:27.089Z,1.43
2022-09-24T13:50:55.442Z,1.10
2022-09-24T13:53:24.251Z,1.27
2022-09-24T13:55:53.897Z,1.30
2022-09-24T13:58:29.997Z,1.40
2022-09-24T14:00:58.486Z,1.40
2022-09-24T14:03:27.732Z,1.20
2022-09-24T14:05:57.109Z,0.93
2022-09-24T14:08:27.495Z,0.90
2022-09-24T14:11:08.170Z,1.43
2022-09-24T14:13:45.632Z,1.00
2022-09-24T14:16:16.222Z,1.00
2022-09-24T14:18:44.544Z,1.00
2022-09-24T14:21:13.313Z,0.90
2022-09-24T14:23:42.203Z,1.10
2022-09-24T14:26:10.418Z,1.37
2022-09-24T14:28:39.998Z,0.90
2022-09-24T14:31:09.068Z,0.90
2022-09-24T14:33:37.992Z,1.30
2022-09-24T14:36:06.313Z,1.63
2022-09-24T14:38:36.040Z,1.17
2022-09-24T14:41:04.814Z,1.20
2022-09-24T14:43:33.999Z,1.20
2022-09-24T14:46:05.541Z,1.73
2022-09-24T14:48:34.181Z,1.10
2022-09-24T14:51:02.732Z,1.10
2022-09-24T14:53:33.161Z,1.77
2022-09-24T14:56:01.359Z,1.37
2022-09-24T14:58:37.448Z,1.27
2022-09-24T15:01:08.158Z,0.93
2022-09-24T15:03:39.661Z,1.60
2022-09-24T15:06:08.604Z,1.20
2022-09-24T15:08:36.865Z,1.70
2022-09-24T15:11:06.001Z,1.10
2022-09-24T15:13:34.618Z,1.43
2022-09-24T15:16:03.668Z,1.70
2022-09-24T15:18:34.748Z,1.27
2022-09-24T15:21:06.216Z,1.33
2022-09-24T15:23:34.553Z,1.67
2022-09-24T15:26:02.812Z,1.60
2022-09-24T15:28:31.002Z,1.30
2022-09-24T15:30:59.285Z,1.23
2022-09-24T15:33:27.560Z,1.50
2022-09-24T15:35:57.218Z,1.33
2022-09-24T15:38:25.521Z,1.23
2022-09-24T15:40:53.900Z,1.67
2022-09-24T15:43:22.628Z,1.33
2022-09-24T15:45:50.876Z,1.30
2022-09-24T15:48:19.064Z,1.73
2022-09-24T15:50:47.709Z,1.07
2022-09-24T15:53:19.339Z,1.97
2022-09-24T15:55:49.589Z,1.60
2022-09-24T15:58:19.633Z,1.20
2022-09-24T16:00:48.129Z,1.27
2022-09-24T16:03:18.838Z,1.10
2022-09-24T16:05:47.333Z,1.60
2022-09-24T16:08:15.739Z,1.67
2022-09-24T16:10:45.316Z,1.33
2022-09-24T16:13:13.561Z,1.33
2022-09-24T16:15:41.928Z,0.97
2022-09-24T16:18:11.320Z,1.50
2022-09-24T16:20:39.780Z,1.40
2022-09-24T16:23:08.076Z,1.30
2022-09-24T16:25:36.278Z,1.27
2022-09-24T16:28:05.856Z,1.33
2022-09-24T16:30:38.327Z,1.37
2022-09-24T16:33:06.912Z,1.30
2022-09-24T16:35:35.240Z,1.77
2022-09-24T16:38:03.491Z,1.67
2022-09-24T16:40:32.892Z,1.47
2022-09-24T16:43:01.491Z,1.60
2022-09-24T16:45:31.097Z,1.50
2022-09-24T16:47:59.332Z,1.37
2022-09-24T16:50:27.571Z,1.67
2022-09-24T16:52:55.993Z,1.70
2022-09-24T16:55:25.123Z,2.20
2022-09-24T16:57:53.498Z,1.70
2022-09-24T17:00:21.761Z,1.43
2022-09-24T17:02:51.422Z,1.43
2022-09-24T17:05:20.082Z,1.17
2022-09-24T17:07:48.289Z,1.77
2022-09-24T17:10:18.034Z,1.57
2022-09-24T17:12:46.627Z,1.20
2022-09-24T17:15:15.140Z,1.60
2022-09-24T17:17:49.634Z,1.93
2022-09-24T17:20:20.228Z,1.90
2022-09-24T17:22:49.790Z,1.63
2022-09-24T17:25:18.165Z,1.67
2022-09-24T17:27:46.394Z,1.27
2022-09-24T17:30:15.015Z,1.53
2022-09-24T17:32:43.201Z,1.23
2022-09-24T17:35:11.696Z,1.40
2022-09-24T17:37:41.287Z,1.40
2022-09-24T17:40:11.023Z,1.43
2022-09-24T17:42:45.912Z,1.80
2022-09-24T17:45:14.195Z,1.27
2022-09-24T17:47:57.827Z,1.33
2022-09-24T17:50:26.165Z,1.40
2022-09-24T17:52:55.751Z,2.00
2022-09-24T17:55:24.092Z,1.10
2022-09-24T17:57:52.339Z,1.37
2022-09-24T18:00:20.575Z,1.87
2022-09-24T18:02:48.952Z,2.43
2022-09-24T18:05:17.245Z,1.30
2022-09-24T18:07:45.497Z,1.07
2022-09-24T18:10:17.312Z,1.40
2022-09-24T18:12:45.548Z,1.73
2022-09-24T18:15:13.737Z,1.30
2022-09-24T18:17:42.043Z,1.17
2022-09-24T18:20:10.615Z,1.77
2022-09-24T18:22:39.175Z,1.27
2022-09-24T18:25:07.969Z,1.00
2022-09-24T18:27:38.037Z,1.23
2022-09-24T18:30:07.678Z,1.50
2022-09-24T18:32:37.017Z,1.63
2022-09-24T18:35:07.958Z,1.40
2022-09-24T18:37:36.504Z,1.63
2022-09-24T18:40:05.365Z,0.80
2022-09-24T18:42:34.903Z,1.03
2022-09-24T18:45:04.517Z,1.20
2022-09-24T18:47:32.747Z,1.33
2022-09-24T18:50:02.036Z,1.50
2022-09-24T18:52:30.285Z,1.40
2022-09-24T18:54:58.531Z,2.00
2022-09-24T18:57:26.914Z,1.30
2022-09-24T18:59:55.330Z,1.10
2022-09-24T19:02:26.346Z,1.50
2022-09-24T19:04:54.860Z,1.17
2022-09-24T19:07:23.057Z,1.47
2022-09-24T19:09:51.295Z,1.33
2022-09-24T19:12:19.774Z,1.53
2022-09-24T19:14:48.486Z,1.63
2022-09-24T19:17:16.843Z,1.80
2022-09-24T19:19:52.146Z,2.43
2022-09-24T19:22:20.726Z,2.17
2022-09-24T19:24:49.201Z,2.30
2022-09-24T19:27:17.479Z,2.20
2022-09-24T19:29:45.684Z,2.27
2022-09-24T19:32:18.056Z,1.93
2022-09-24T19:34:49.067Z,1.80
2022-09-24T19:37:17.498Z,1.93
2022-09-24T19:39:46.195Z,2.17
2022-09-24T19:42:15.217Z,2.33
2022-09-24T19:44:43.815Z,1.90
2022-09-24T19:47:12.196Z,2.17
2022-09-24T19:49:40.453Z,2.63
2022-09-24T19:52:10.114Z,2.47
2022-09-24T19:54:38.331Z,1.97
2022-09-24T19:57:06.544Z,2.57
2022-09-24T19:59:34.864Z,3.03
2022-09-24T20:02:03.247Z,3.33
2022-09-24T20:04:33.708Z,2.07
2022-09-24T20:07:05.786Z,2.50
2022-09-24T20:09:35.745Z,2.23
2022-09-24T20:12:04.695Z,2.57
2022-09-24T20:14:33.898Z,2.90
2022-09-24T20:17:02.186Z,2.97
2022-09-24T20:19:30.513Z,2.73
2022-09-24T20:21:58.972Z,2.63
2022-09-24T20:24:27.236Z,3.43
2022-09-24T20:27:14.214Z,2.80
2022-09-24T20:29:44.374Z,3.43
2022-09-24T20:32:15.961Z,2.63
2022-09-24T20:34:44.163Z,3.50
2022-09-24T20:37:12.387Z,3.23
2022-09-24T20:39:40.734Z,4.03
2022-09-24T20:42:10.351Z,3.97
2022-09-24T20:44:38.545Z,3.07
2022-09-24T20:47:07.010Z,3.57
2022-09-24T20:49:35.428Z,3.83
2022-09-24T20:52:05.606Z,3.77
2022-09-24T20:54:34.570Z,4.10
2022-09-24T20:57:02.793Z,4.03
2022-09-24T20:59:32.405Z,4.33
2022-09-24T21:02:00.840Z,5.80
2022-09-24T21:04:29.206Z,5.23
2022-09-24T21:06:57.422Z,5.90
2022-09-24T21:09:25.748Z,5.70
2022-09-24T21:11:54.705Z,5.53
2022-09-24T21:14:23.081Z,6.83
2022-09-24T21:16:55.022Z,6.57
2022-09-24T21:19:24.240Z,6.93
2022-09-24T21:21:53.076Z,6.57
2022-09-24T21:24:25.188Z,6.70
2022-09-24T21:26:55.958Z,6.83
2022-09-24T21:29:24.270Z,7.80
2022-09-24T21:31:53.831Z,7.50
2022-09-24T21:34:22.248Z,8.53
2022-09-24T21:36:53.223Z,7.53
2022-09-24T21:39:22.960Z,7.10
2022-09-24T21:41:54.932Z,8.83
2022-09-24T21:44:23.185Z,9.33
2022-09-24T21:46:52.230Z,7.50
2022-09-24T21:49:22.805Z,7.53
2022-09-24T21:51:52.415Z,8.27
2022-09-24T21:54:20.639Z,8.60
2022-09-24T21:56:48.889Z,8.27
2022-09-24T21:59:35.043Z,8.23
2022-09-24T22:02:03.408Z,9.67
2022-09-24T22:04:33.617Z,7.83
2022-09-24T22:07:02.191Z,8.37
2022-09-24T22:09:32.201Z,7.83
2022-09-24T22:12:00.822Z,7.57
2022-09-24T22:14:29.212Z,8.07
2022-09-24T22:16:57.553Z,7.60
2022-09-24T22:19:25.986Z,7.87
2022-09-24T22:21:55.625Z,9.27
2022-09-24T22:24:23.843Z,7.07
2022-09-24T22:26:52.127Z,7.73
2022-09-24T22:29:20.421Z,6.97
2022-09-24T22:31:48.650Z,7.10
2022-09-24T22:34:34.378Z,7.03
2022-09-24T22:37:06.992Z,7.07
2022-09-24T22:39:36.040Z,8.17
2022-09-24T22:42:04.265Z,6.60
2022-09-24T22:44:32.514Z,7.40
2022-09-24T22:47:00.750Z,7.27
2022-09-24T22:49:29.062Z,6.83
2022-09-24T22:51:57.272Z,7.73
2022-09-24T22:54:26.917Z,7.43
2022-09-24T22:56:55.116Z,6.57
2022-09-24T22:59:23.340Z,7.90
2022-09-24T23:01:51.593Z,6.43
2022-09-24T23:04:20.577Z,6.73
2022-09-24T23:06:48.806Z,5.80
2022-09-24T23:09:17.049Z,6.30
2022-09-24T23:11:46.616Z,6.73
2022-09-24T23:14:16.169Z,5.70
2022-09-24T23:16:44.524Z,5.53
2022-09-24T23:19:14.093Z,6.10
2022-09-24T23:21:42.301Z,6.40
2022-09-24T23:24:11.005Z,5.80
2022-09-24T23:26:39.271Z,5.03
2022-09-24T23:29:09.154Z,5.23
2022-09-24T23:31:37.758Z,5.67
2022-09-24T23:34:06.952Z,5.33
2022-09-24T23:36:35.560Z,5.20
2022-09-24T23:39:03.801Z,6.10
2022-09-24T23:41:32.187Z,5.20
2022-09-24T23:44:00.455Z,5.33
2022-09-24T23:46:30.107Z,6.10
2022-09-24T23:48:58.384Z,4.73
2022-09-24T23:51:26.594Z,4.57
2022-09-24T23:53:54.809Z,5.30
2022-09-24T23:56:23.140Z,4.50
2022-09-24T23:58:51.345Z,4.40
